Time;durP1;ratioP1;P1;durP2;ratioP2;P2;SDS_P1;SDS_P2;PMS_P1;PMS_P2;Temp;Humidity;BMP_temperature;BMP_pressure;BME280_temperature;BME280_humidity;BME280_pressure;Samples;Min_cycle;Max_cycle;Signal;HPM_P1;HPM_P2
2022/03/26 00:00:26;;;;;;;21.17;9.40;;;;;;;8.55;67.07;103115.25;5073766;28;20094;-58
2022/03/26 00:02:54;;;;;;;19.98;9.98;;;;;;;8.49;67.18;103128.53;5078939;28;20139;-58
2022/03/26 00:05:23;;;;;;;22.85;9.25;;;;;;;8.43;67.68;103119.84;5084169;28;20040;-57
2022/03/26 00:07:51;;;;;;;23.02;9.50;;;;;;;8.42;67.91;103119.88;5075345;28;20048;-58
2022/03/26 00:10:19;;;;;;;21.73;10.13;;;;;;;8.37;68.24;103126.97;5076280;28;20039;-57
2022/03/26 00:12:50;;;;;;;21.65;10.02;;;;;;;8.33;68.59;103123.56;5075085;28;20055;-57
2022/03/26 00:15:18;;;;;;;21.58;9.98;;;;;;;8.25;69.21;103131.56;5092904;28;20522;-58
2022/03/26 00:17:47;;;;;;;25.27;10.13;;;;;;;8.18;69.74;103124.72;5094283;28;20047;-61
2022/03/26 00:20:15;;;;;;;18.73;9.70;;;;;;;8.17;70.08;103130.84;5092356;28;20051;-61
2022/03/26 00:22:43;;;;;;;23.80;10.45;;;;;;;8.12;70.36;103124.81;5074360;28;20117;-62
2022/03/26 00:25:14;;;;;;;21.60;9.90;;;;;;;8.15;70.06;103126.50;5089792;28;20483;-62
2022/03/26 00:27:43;;;;;;;24.48;11.13;;;;;;;8.14;70.74;103133.53;5074938;28;20047;-63
2022/03/26 00:30:13;;;;;;;20.98;9.82;;;;;;;8.11;70.70;103129.19;5084931;28;20063;-63
2022/03/26 00:32:42;;;;;;;21.63;10.13;;;;;;;8.12;70.70;103127.44;5093361;28;20055;-63
2022/03/26 00:35:11;;;;;;;21.40;9.65;;;;;;;8.07;71.09;103130.16;5079187;28;20045;-61
2022/03/26 00:37:40;;;;;;;22.92;10.05;;;;;;;8.07;71.26;103126.63;5074856;28;20530;-62
2022/03/26 00:40:10;;;;;;;28.45;11.38;;;;;;;8.03;71.78;103127.59;5085633;28;20068;-62
2022/03/26 00:42:38;;;;;;;24.55;10.60;;;;;;;8.01;71.60;103124.16;5094382;28;20529;-62
2022/03/26 00:45:08;;;;;;;22.83;10.63;;;;;;;7.93;72.01;103130.41;5081623;28;20098;-61
2022/03/26 00:47:39;;;;;;;26.88;11.65;;;;;;;7.94;72.46;103123.38;5074218;28;20169;-62
2022/03/26 00:50:10;;;;;;;25.00;10.45;;;;;;;7.96;71.96;103124.22;5075021;28;20503;-62
2022/03/26 00:52:38;;;;;;;24.52;11.10;;;;;;;7.86;73.26;103131.38;5090939;28;20063;-62
2022/03/26 00:55:08;;;;;;;23.50;11.00;;;;;;;7.83;73.71;103122.72;5093877;28;20044;-63
2022/03/26 00:57:36;;;;;;;21.80;10.63;;;;;;;7.76;73.61;103124.56;5081476;28;20044;-63
2022/03/26 01:00:06;;;;;;;25.35;11.23;;;;;;;7.74;73.88;103123.72;5084848;28;20079;-62
2022/03/26 01:02:34;;;;;;;24.73;11.27;;;;;;;7.71;73.30;103127.25;5075348;28;20119;-61
2022/03/26 01:05:05;;;;;;;25.92;10.80;;;;;;;7.67;73.22;103127.34;5086382;28;20071;-61
2022/03/26 01:07:33;;;;;;;23.55;11.15;;;;;;;7.65;72.88;103124.75;5074237;28;20049;-62
2022/03/26 01:10:01;;;;;;;23.30;10.75;;;;;;;7.64;73.10;103128.25;5091092;28;20486;-62
2022/03/26 01:12:30;;;;;;;24.48;10.95;;;;;;;7.58;73.14;103123.09;5092453;28;20044;-62
2022/03/26 01:14:58;;;;;;;23.73;10.85;;;;;;;7.56;73.70;103131.00;5087470;28;20538;-62
2022/03/26 01:17:26;;;;;;;23.00;11.50;;;;;;;7.53;73.32;103130.19;5074024;28;20045;-62
2022/03/26 01:19:55;;;;;;;26.05;11.52;;;;;;;7.49;73.76;103129.38;5078046;28;20033;-62
2022/03/26 01:22:24;;;;;;;24.88;11.30;;;;;;;7.47;74.47;103123.28;5077731;28;20129;-62
2022/03/26 01:24:54;;;;;;;20.33;11.50;;;;;;;7.45;74.36;103127.69;5089039;28;20058;-62
2022/03/26 01:27:22;;;;;;;27.33;11.43;;;;;;;7.45;74.39;103127.69;5088264;28;20523;-61
2022/03/26 01:29:50;;;;;;;25.58;11.82;;;;;;;7.44;74.63;103121.59;5088482;28;20048;-61
2022/03/26 01:32:18;;;;;;;27.33;12.85;;;;;;;7.41;74.36;103121.63;5072546;28;20056;-62
2022/03/26 01:34:46;;;;;;;25.52;11.57;;;;;;;7.42;73.95;103119.88;5076823;28;20048;-63
2022/03/26 01:37:16;;;;;;;29.05;12.35;;;;;;;7.39;74.38;103125.16;5080808;28;20055;-62
2022/03/26 01:39:46;;;;;;;27.80;12.18;;;;;;;7.37;73.99;103119.94;5074863;28;20052;-62
2022/03/26 01:42:14;;;;;;;30.23;11.75;;;;;;;7.36;75.10;103123.47;5087444;28;20107;-63
2022/03/26 01:44:42;;;;;;;27.40;12.00;;;;;;;7.36;74.64;103122.59;5075205;28;20053;-63
2022/03/26 01:47:11;;;;;;;26.75;13.20;;;;;;;7.32;74.59;103126.13;5088582;28;20047;-63
2022/03/26 01:49:39;;;;;;;29.35;13.02;;;;;;;7.33;75.30;103117.41;5082363;28;20069;-62
2022/03/26 01:52:10;;;;;;;33.15;13.98;;;;;;;7.36;74.44;103117.34;5061218;28;20048;-57
2022/03/26 01:54:39;;;;;;;27.73;13.10;;;;;;;7.33;74.19;103122.63;5088570;28;20075;-57
2022/03/26 01:57:11;;;;;;;23.27;11.88;;;;;;;7.30;74.55;103117.47;5072650;28;20066;-58
2022/03/26 01:59:40;;;;;;;26.38;12.50;;;;;;;7.24;75.17;103114.03;5076690;28;20049;-57
2022/03/26 02:02:09;;;;;;;27.38;13.23;;;;;;;7.24;74.53;103111.41;5091772;28;20493;-57
2022/03/26 02:04:38;;;;;;;29.67;13.40;;;;;;;7.20;74.83;103114.09;5078558;28;20418;-57
2022/03/26 02:07:06;;;;;;;27.55;13.18;;;;;;;7.13;75.49;103110.72;5089608;28;20513;-57
2022/03/26 02:09:35;;;;;;;29.85;11.77;;;;;;;7.03;76.34;103120.44;5077103;28;20468;-57
2022/03/26 02:12:21;;;;;;;30.98;14.60;;;;;;;7.05;75.95;103113.44;5090030;28;20036;-58
2022/03/26 02:14:52;;;;;;;28.35;14.35;;;;;;;7.06;75.64;103119.53;5092990;28;20055;-58
2022/03/26 02:17:20;;;;;;;26.05;13.13;;;;;;;7.04;75.88;103109.09;5074803;28;20429;-58
2022/03/26 02:19:50;;;;;;;27.67;12.90;;;;;;;7.00;76.13;103106.53;5072739;28;20102;-57
2022/03/26 02:22:20;;;;;;;29.58;13.32;;;;;;;7.03;76.38;103109.09;5087186;28;20062;-57
2022/03/26 02:24:49;;;;;;;26.90;12.95;;;;;;;7.01;75.83;103110.88;5092494;28;20149;-56
2022/03/26 02:27:21;;;;;;;30.00;13.13;;;;;;;7.10;75.33;103108.13;5078603;28;20060;-57
2022/03/26 02:29:50;;;;;;;26.70;13.20;;;;;;;7.07;75.72;103105.56;5085088;28;20059;-57
2022/03/26 02:32:20;;;;;;;31.75;12.85;;;;;;;7.00;75.22;103106.53;5072483;28;20068;-58
2022/03/26 02:34:50;;;;;;;29.92;13.65;;;;;;;6.91;76.01;103111.03;5072409;28;20052;-58
2022/03/26 02:37:34;;;;;;;30.45;13.15;;;;;;;6.88;75.71;103108.41;5086294;28;20391;-58
2022/03/26 02:40:04;;;;;;;34.05;13.70;;;;;;;6.91;75.43;103110.13;5057398;28;20051;-57
2022/03/26 02:42:33;;;;;;;29.85;14.07;;;;;;;6.81;76.05;103109.41;5072644;28;20086;-58
2022/03/26 02:45:02;;;;;;;29.48;13.43;;;;;;;6.83;75.63;103114.59;5090692;28;20093;-57
2022/03/26 02:47:30;;;;;;;31.90;14.77;;;;;;;6.79;75.17;103110.31;5091853;28;20482;-57
2022/03/26 02:49:59;;;;;;;28.48;13.88;;;;;;;6.79;74.78;103105.97;5077858;28;20074;-57
2022/03/26 02:52:27;;;;;;;35.75;14.57;;;;;;;6.79;74.47;103105.06;5084339;28;20040;-57
2022/03/26 02:54:55;;;;;;;33.67;13.55;;;;;;;6.80;74.61;103107.66;5075205;28;20561;-57
2022/03/26 02:57:25;;;;;;;29.10;13.18;;;;;;;6.82;74.39;103105.91;5080446;28;20048;-57
2022/03/26 02:59:53;;;;;;;29.10;12.38;;;;;;;6.80;74.38;103102.44;5083777;28;20040;-57
2022/03/26 03:02:21;;;;;;;32.90;14.07;;;;;;;6.77;74.37;103112.94;5077000;28;20082;-57
2022/03/26 03:04:49;;;;;;;31.23;13.70;;;;;;;6.71;75.11;103103.44;5072005;28;20053;-57
2022/03/26 03:07:19;;;;;;;29.10;15.05;;;;;;;6.68;74.95;103102.59;5080813;28;20105;-57
2022/03/26 03:09:47;;;;;;;29.08;13.88;;;;;;;6.62;75.18;103100.06;5090486;28;20040;-58
2022/03/26 03:12:15;;;;;;;28.58;13.43;;;;;;;6.65;75.21;103105.25;5083593;28;20054;-58
2022/03/26 03:14:43;;;;;;;31.80;14.38;;;;;;;6.64;75.04;103106.13;5071952;28;20124;-57
2022/03/26 03:17:11;;;;;;;37.00;15.82;;;;;;;6.62;74.33;103106.16;5083606;28;20102;-57
2022/03/26 03:19:39;;;;;;;34.20;14.18;;;;;;;6.63;73.99;103110.50;5071715;28;20454;-58
2022/03/26 03:22:07;;;;;;;29.73;14.85;;;;;;;6.63;74.32;103104.44;5077252;28;20048;-57
2022/03/26 03:24:37;;;;;;;31.17;14.80;;;;;;;6.59;74.06;103108.81;5092224;28;20094;-57
2022/03/26 03:27:06;;;;;;;35.65;14.13;;;;;;;6.57;74.55;103107.94;5079890;28;20044;-62
2022/03/26 03:29:35;;;;;;;32.70;14.68;;;;;;;6.57;74.76;103106.22;5089506;28;20040;-61
2022/03/26 03:32:04;;;;;;;34.05;15.00;;;;;;;6.55;74.44;103107.13;5072970;28;20037;-56
2022/03/26 03:34:33;;;;;;;29.95;14.55;;;;;;;6.54;74.34;103106.25;5072270;28;20052;-61
2022/03/26 03:37:02;;;;;;;29.33;14.82;;;;;;;6.50;74.37;103109.78;5077423;28;20093;-61
2022/03/26 03:39:30;;;;;;;35.35;16.77;;;;;;;6.48;74.71;103106.31;5094177;28;20148;-61
2022/03/26 03:42:02;;;;;;;33.05;15.30;;;;;;;6.47;74.37;103106.34;5093046;28;20055;-56
2022/03/26 03:44:30;;;;;;;33.38;15.00;;;;;;;6.52;74.76;103107.16;5075405;28;20444;-61
2022/03/26 03:46:58;;;;;;;31.95;14.48;;;;;;;6.51;74.58;103111.50;5075821;28;20040;-62
2022/03/26 03:49:29;;;;;;;32.47;14.38;;;;;;;6.51;74.30;103105.44;5084363;28;20040;-62
2022/03/26 03:51:57;;;;;;;33.33;14.65;;;;;;;6.51;74.60;103108.91;5075356;28;20150;-58
2022/03/26 03:54:28;;;;;;;36.35;15.70;;;;;;;6.46;74.29;103108.06;5094766;28;20534;-61
2022/03/26 03:56:56;;;;;;;35.10;15.73;;;;;;;6.46;74.41;103102.84;5091051;28;20063;-62
2022/03/26 03:59:26;;;;;;;37.65;16.92;;;;;;;6.49;74.42;103102.84;5074166;28;20357;-61
2022/03/26 04:01:54;;;;;;;34.63;14.75;;;;;;;6.45;74.97;103108.09;5092058;28;20093;-58
2022/03/26 04:04:22;;;;;;;38.85;16.40;;;;;;;6.42;75.50;103106.38;5076363;28;20123;-57
2022/03/26 04:06:50;;;;;;;34.10;16.73;;;;;;;6.38;75.53;103107.31;5093413;28;20450;-63
2022/03/26 04:09:18;;;;;;;34.25;15.60;;;;;;;6.36;75.77;103112.56;5090856;28;20380;-62
2022/03/26 04:11:46;;;;;;;41.60;16.63;;;;;;;6.37;75.06;103114.28;5075155;28;20445;-62
2022/03/26 04:14:14;;;;;;;34.95;17.13;;;;;;;6.39;75.34;103114.28;5090232;28;20036;-62
2022/03/26 04:16:44;;;;;;;36.60;17.23;;;;;;;6.39;75.52;103114.28;5094259;28;20055;-62
2022/03/26 04:19:12;;;;;;;36.45;17.27;;;;;;;6.37;76.27;103114.28;5073353;28;20128;-56
2022/03/26 04:21:41;;;;;;;37.55;18.20;;;;;;;6.34;76.21;103116.94;5088169;28;20089;-62
2022/03/26 04:24:09;;;;;;;38.97;19.13;;;;;;;6.31;76.51;103118.72;5086073;28;20048;-57
2022/03/26 04:26:37;;;;;;;39.47;18.10;;;;;;;6.26;77.01;103118.78;5095040;28;20391;-62
2022/03/26 04:29:06;;;;;;;40.55;18.48;;;;;;;6.18;77.53;103121.47;5078853;28;20567;-57
2022/03/26 04:31:34;;;;;;;39.33;18.75;;;;;;;6.18;77.63;103128.44;5074760;28;20072;-58
2022/03/26 04:34:03;;;;;;;36.08;18.52;;;;;;;6.18;78.27;103129.31;5081899;28;20040;-62
2022/03/26 04:36:34;;;;;;;39.58;18.95;;;;;;;6.17;78.45;103127.56;5094614;28;20340;-60
2022/03/26 04:39:02;;;;;;;38.42;19.10;;;;;;;6.18;77.58;103123.22;5085483;28;20044;-57
2022/03/26 04:41:30;;;;;;;39.70;19.73;;;;;;;6.14;77.67;103131.97;5074703;28;20045;-57
2022/03/26 04:43:58;;;;;;;45.25;19.85;;;;;;;6.11;78.51;103132.88;5087643;28;20043;-61
2022/03/26 04:46:26;;;;;;;43.88;20.02;;;;;;;6.20;78.57;103130.16;5089359;28;20102;-57
2022/03/26 04:48:54;;;;;;;41.65;21.02;;;;;;;6.13;78.57;103130.22;5084720;28;20044;-57
2022/03/26 04:51:24;;;;;;;40.08;19.63;;;;;;;6.08;79.49;103127.66;5093887;28;20052;-62
2022/03/26 04:53:52;;;;;;;40.15;20.48;;;;;;;6.02;78.98;103132.94;5093093;28;20043;-61
2022/03/26 04:56:20;;;;;;;44.97;19.83;;;;;;;6.04;79.24;103125.94;5092854;28;20067;-57
2022/03/26 04:58:48;;;;;;;40.00;19.95;;;;;;;6.00;78.92;103132.09;5093007;28;20044;-61
2022/03/26 05:01:18;;;;;;;41.33;20.00;;;;;;;5.93;81.42;103134.72;5092945;28;20044;-61
2022/03/26 05:03:47;;;;;;;39.97;19.05;;;;;;;5.84;81.67;103126.13;5070903;28;20040;-57
2022/03/26 05:06:15;;;;;;;43.50;20.38;;;;;;;5.75;81.29;103122.72;5086441;28;20068;-57
2022/03/26 05:08:45;;;;;;;40.50;19.15;;;;;;;5.83;80.83;103121.78;5079200;28;20075;-57
2022/03/26 05:11:14;;;;;;;40.45;19.30;;;;;;;5.71;81.77;103130.56;5073851;28;20136;-62
2022/03/26 05:13:45;;;;;;;36.88;18.75;;;;;;;5.66;81.96;103127.13;5073761;28;20514;-58
2022/03/26 05:16:15;;;;;;;43.58;19.25;;;;;;;5.57;82.28;103139.38;5093060;28;20048;-55
2022/03/26 05:18:43;;;;;;;40.22;18.38;;;;;;;5.51;82.18;103130.75;5093766;28;20040;-62
2022/03/26 05:21:11;;;;;;;39.05;18.30;;;;;;;5.50;82.59;103132.47;5065348;28;20135;-61
2022/03/26 05:23:41;;;;;;;45.60;20.45;;;;;;;5.42;82.34;103139.50;5073407;28;20041;-61
2022/03/26 05:26:10;;;;;;;48.15;21.10;;;;;;;5.44;82.22;103145.56;5082552;28;20028;-60
2022/03/26 05:28:38;;;;;;;40.40;19.58;;;;;;;5.45;82.00;103144.69;5081563;28;20056;-61
2022/03/26 05:31:08;;;;;;;42.25;20.42;;;;;;;5.41;82.17;103136.03;5079048;28;20091;-60
2022/03/26 05:33:36;;;;;;;45.83;18.52;;;;;;;5.44;82.61;103145.56;5092414;28;20062;-58
2022/03/26 05:36:05;;;;;;;40.22;19.02;;;;;;;5.30;83.67;103155.22;5078967;28;20049;-57
2022/03/26 05:38:33;;;;;;;43.50;19.17;;;;;;;5.28;84.25;103154.38;5062905;28;20458;-62
2022/03/26 05:41:04;;;;;;;38.08;18.30;;;;;;;5.22;85.49;103150.94;5065783;28;20106;-63
2022/03/26 05:43:33;;;;;;;41.58;18.95;;;;;;;5.19;85.79;103155.28;5070826;28;20051;-58
2022/03/26 05:46:01;;;;;;;46.67;21.08;;;;;;;5.06;86.77;103157.97;5064394;28;20045;-57
2022/03/26 05:48:30;;;;;;;43.10;20.45;;;;;;;5.09;86.66;103159.69;5070661;28;20048;-60
2022/03/26 05:50:59;;;;;;;43.28;20.40;;;;;;;5.03;86.55;103158.00;5071123;28;20044;-61
2022/03/26 05:53:27;;;;;;;41.92;20.30;;;;;;;5.02;86.66;103158.84;5071304;28;20040;-61
2022/03/26 05:55:55;;;;;;;44.85;21.05;;;;;;;5.04;86.39;103164.06;5071784;28;20067;-61
2022/03/26 05:58:23;;;;;;;47.08;20.17;;;;;;;5.08;86.25;103163.16;5066436;28;20052;-60
2022/03/26 06:00:53;;;;;;;43.53;18.85;;;;;;;5.11;86.17;103170.97;5071057;28;20491;-61
2022/03/26 06:03:21;;;;;;;44.35;19.45;;;;;;;5.03;86.21;103170.13;5059250;28;20462;-61
2022/03/26 06:05:49;;;;;;;42.88;18.27;;;;;;;5.01;87.62;103175.38;5052624;28;20052;-62
2022/03/26 06:08:17;;;;;;;40.38;19.73;;;;;;;5.06;87.43;103173.63;5064917;28;20056;-60
2022/03/26 06:10:45;;;;;;;39.17;19.40;;;;;;;5.11;86.79;103175.34;5064656;28;20049;-61
2022/03/26 06:13:14;;;;;;;41.53;20.83;;;;;;;5.01;87.17;103177.97;5064406;28;20364;-61
2022/03/26 06:15:42;;;;;;;40.28;20.00;;;;;;;5.12;86.63;103180.53;5072599;28;20380;-62
2022/03/26 06:18:13;;;;;;;39.70;19.65;;;;;;;5.18;86.83;103190.06;5082098;28;20046;-62
2022/03/26 06:20:43;;;;;;;44.25;20.67;;;;;;;5.23;86.63;103191.78;5093024;28;20074;-62
2022/03/26 06:23:11;;;;;;;42.70;20.67;;;;;;;5.17;86.28;103184.00;5085514;28;20101;-61
2022/03/26 06:25:39;;;;;;;43.40;19.63;;;;;;;5.22;86.67;103195.28;5052237;28;20407;-60
2022/03/26 06:28:08;;;;;;;40.38;19.65;;;;;;;5.31;86.38;103189.13;5075467;28;20047;-61
2022/03/26 06:30:36;;;;;;;42.05;19.95;;;;;;;5.37;85.76;103188.22;5081908;28;20114;-61
2022/03/26 06:33:04;;;;;;;40.40;19.55;;;;;;;5.38;85.89;103195.19;5087148;28;20066;-61
2022/03/26 06:35:34;;;;;;;40.17;19.40;;;;;;;5.41;85.59;103193.44;5080818;28;20051;-61
2022/03/26 06:38:05;;;;;;;44.83;20.75;;;;;;;5.53;84.71;103197.69;5075759;28;20053;-62
2022/03/26 06:40:33;;;;;;;41.30;19.83;;;;;;;5.59;84.65;103188.97;5083501;28;20048;-61
2022/03/26 06:43:01;;;;;;;42.17;19.55;;;;;;;5.70;85.14;103199.31;5072360;28;20045;-61
2022/03/26 06:45:30;;;;;;;43.78;20.58;;;;;;;5.80;85.12;103190.56;5072200;28;20033;-61
2022/03/26 06:47:59;;;;;;;40.05;19.95;;;;;;;5.80;85.38;103193.16;5072329;28;20052;-61
2022/03/26 06:50:28;;;;;;;41.97;21.10;;;;;;;5.85;84.45;103194.00;5072159;28;20101;-61
2022/03/26 06:52:58;;;;;;;46.20;20.88;;;;;;;5.84;84.78;103192.28;5072349;28;20435;-62
2022/03/26 06:55:27;;;;;;;46.45;20.77;;;;;;;5.89;85.22;103192.22;5071941;28;20128;-62
2022/03/26 06:57:55;;;;;;;41.67;21.10;;;;;;;5.93;85.54;103194.81;5071961;28;20533;-61
2022/03/26 07:00:23;;;;;;;44.47;21.75;;;;;;;6.07;85.37;103186.03;5072168;28;20087;-61
2022/03/26 07:02:51;;;;;;;40.97;20.75;;;;;;;6.12;85.41;103186.84;5072252;28;20048;-62
2022/03/26 07:05:20;;;;;;;45.35;21.02;;;;;;;6.15;85.02;103186.81;5081438;28;20470;-61
2022/03/26 07:07:50;;;;;;;45.17;23.40;;;;;;;6.22;85.08;103187.63;5084938;28;20068;-62
2022/03/26 07:10:21;;;;;;;52.90;24.33;;;;;;;6.30;85.59;103190.16;5061155;28;20048;-61
2022/03/26 07:12:51;;;;;;;53.40;22.92;;;;;;;6.38;86.27;103198.78;5072103;28;20514;-62
2022/03/26 07:15:19;;;;;;;51.65;23.65;;;;;;;6.47;86.69;103198.69;5072147;28;20047;-60
2022/03/26 07:17:47;;;;;;;46.53;23.67;;;;;;;6.60;86.19;103200.31;5071985;28;20507;-61
2022/03/26 07:20:15;;;;;;;50.25;24.13;;;;;;;6.77;86.74;103191.41;5071986;28;20071;-60
2022/03/26 07:22:45;;;;;;;52.13;24.15;;;;;;;6.94;87.18;103199.91;5072061;28;20392;-60
2022/03/26 07:25:13;;;;;;;48.88;23.55;;;;;;;7.15;86.14;103202.28;5071466;28;20052;-61
2022/03/26 07:27:44;;;;;;;50.58;25.60;;;;;;;7.35;84.91;103202.00;5078725;28;20075;-62
2022/03/26 07:30:13;;;;;;;49.88;24.52;;;;;;;7.52;84.85;103207.88;5078487;28;20044;-61
2022/03/26 07:32:42;;;;;;;55.40;25.45;;;;;;;7.74;83.51;103211.06;5085609;28;20120;-62
2022/03/26 07:35:10;;;;;;;55.95;25.70;;;;;;;7.97;83.74;103216.81;5078033;28;20044;-61
2022/03/26 07:37:39;;;;;;;51.08;24.90;;;;;;;8.29;82.23;103218.88;5074044;28;20127;-57
2022/03/26 07:40:08;;;;;;;55.70;24.88;;;;;;;8.45;82.19;103219.50;5076096;28;20553;-61
2022/03/26 07:42:36;;;;;;;52.38;25.65;;;;;;;8.64;80.97;103214.75;5078224;28;20054;-62
2022/03/26 07:45:07;;;;;;;51.10;24.63;;;;;;;8.83;78.39;103211.78;5075495;28;20036;-57
2022/03/26 07:47:36;;;;;;;53.42;25.45;;;;;;;9.17;77.81;103219.81;5087066;28;20036;-61
2022/03/26 07:50:06;;;;;;;51.65;24.92;;;;;;;9.36;74.91;103217.66;5074668;28;20576;-57
2022/03/26 07:52:34;;;;;;;54.22;25.98;;;;;;;9.58;75.54;103218.03;5083376;28;20400;-61
2022/03/26 07:55:02;;;;;;;48.85;24.95;;;;;;;10.09;73.96;103214.19;5071507;28;20121;-61
2022/03/26 07:57:30;;;;;;;54.85;26.60;;;;;;;10.32;72.96;103210.06;5080977;28;20051;-62
2022/03/26 07:59:59;;;;;;;49.70;25.23;;;;;;;10.57;72.31;103215.59;5071529;28;20391;-62
2022/03/26 08:02:29;;;;;;;51.30;23.45;;;;;;;10.82;69.49;103222.78;5075816;28;20093;-62
2022/03/26 08:04:57;;;;;;;48.60;24.00;;;;;;;11.08;68.15;103223.81;5087629;28;20390;-62
2022/03/26 08:07:25;;;;;;;50.10;24.35;;;;;;;11.51;68.43;103219.88;5083154;28;20055;-62
2022/03/26 08:09:53;;;;;;;48.55;24.75;;;;;;;11.54;66.76;103222.41;5078913;28;20060;-63
2022/03/26 08:12:21;;;;;;;51.35;25.13;;;;;;;11.66;65.76;103224.66;5089968;28;20064;-62
2022/03/26 08:14:50;;;;;;;46.40;25.00;;;;;;;12.00;64.20;103228.88;5086899;28;20054;-62
2022/03/26 08:17:19;;;;;;;48.67;23.92;;;;;;;12.07;63.02;103229.53;5071476;28;20041;-62
2022/03/26 08:19:49;;;;;;;48.97;22.55;;;;;;;12.26;61.00;103221.84;5072447;28;20117;-62
2022/03/26 08:22:17;;;;;;;51.72;24.00;;;;;;;12.46;59.37;103221.16;5073623;28;20046;-62
2022/03/26 08:24:46;;;;;;;56.35;25.80;;;;;;;12.63;59.03;103228.47;5074614;28;20045;-62
2022/03/26 08:27:14;;;;;;;55.63;25.73;;;;;;;12.78;57.57;103231.47;5073335;28;20758;-62
2022/03/26 08:29:42;;;;;;;50.33;24.35;;;;;;;12.98;58.71;103234.25;5053661;28;20057;-62
2022/03/26 08:32:10;;;;;;;50.53;24.33;;;;;;;13.27;56.96;103240.19;5053579;28;20433;-62
2022/03/26 08:34:39;;;;;;;46.75;24.27;;;;;;;13.42;56.28;103237.91;5053792;28;20045;-61
2022/03/26 08:37:09;;;;;;;48.95;23.08;;;;;;;13.63;56.48;103239.72;5068210;28;20483;-61
2022/03/26 08:39:37;;;;;;;45.88;22.58;;;;;;;13.95;56.09;103236.69;5068923;28;20171;-62
2022/03/26 08:42:06;;;;;;;48.60;23.35;;;;;;;14.23;55.12;103235.50;5059606;28;20152;-62
2022/03/26 08:44:34;;;;;;;46.22;23.08;;;;;;;14.48;54.68;103237.94;5053657;28;20536;-62
2022/03/26 08:47:05;;;;;;;48.42;22.98;;;;;;;14.59;53.75;103232.16;5053106;28;20044;-62
2022/03/26 08:49:36;;;;;;;45.50;23.23;;;;;;;14.76;54.01;103245.53;5072272;28;20067;-62
2022/03/26 08:52:06;;;;;;;43.30;22.25;;;;;;;15.02;53.02;103236.44;5080650;28;20048;-62
2022/03/26 08:54:35;;;;;;;48.03;24.60;;;;;;;15.16;52.68;103238.44;5075802;28;20135;-63
2022/03/26 08:57:04;;;;;;;50.10;24.27;;;;;;;15.40;53.43;103240.84;5085659;28;20054;-62
2022/03/26 08:59:32;;;;;;;46.83;24.02;;;;;;;15.38;51.29;103240.91;5083119;28;20052;-62
2022/03/26 09:02:00;;;;;;;43.63;21.60;;;;;;;15.68;50.73;103240.38;5086541;28;20044;-62
2022/03/26 09:04:29;;;;;;;47.10;22.58;;;;;;;15.91;49.94;103237.53;5075530;28;20098;-62
2022/03/26 09:06:57;;;;;;;36.60;19.05;;;;;;;16.14;49.03;103234.59;5083913;28;20074;-62
2022/03/26 09:09:25;;;;;;;31.63;17.83;;;;;;;16.21;47.68;103238.66;5071637;28;20049;-62
2022/03/26 09:11:55;;;;;;;36.70;17.75;;;;;;;16.38;47.91;103231.59;5076554;28;20045;-62
2022/03/26 09:14:23;;;;;;;33.00;16.58;;;;;;;16.68;48.02;103236.25;5073548;28;20056;-62
2022/03/26 09:16:51;;;;;;;31.83;16.52;;;;;;;16.83;47.16;103229.25;5083459;28;20040;-62
2022/03/26 09:19:20;;;;;;;29.38;15.85;;;;;;;16.94;46.75;103236.66;5075822;28;20504;-62
2022/03/26 09:21:49;;;;;;;30.30;15.75;;;;;;;17.02;46.00;103235.28;5087722;28;20467;-62
2022/03/26 09:24:18;;;;;;;32.03;17.13;;;;;;;17.01;46.60;103238.03;5080647;28;20056;-62
2022/03/26 09:26:46;;;;;;;30.40;15.77;;;;;;;17.25;45.73;103246.47;5079995;28;20375;-62
2022/03/26 09:29:16;;;;;;;27.10;15.10;;;;;;;17.22;45.83;103247.50;5088490;28;20135;-62
2022/03/26 09:31:44;;;;;;;30.55;16.65;;;;;;;17.50;45.09;103251.25;5087940;28;20044;-63
2022/03/26 09:34:13;;;;;;;32.47;17.17;;;;;;;17.65;44.99;103249.53;5079322;28;20102;-62
2022/03/26 09:36:41;;;;;;;32.95;17.80;;;;;;;17.82;44.49;103245.03;5077744;28;20036;-62
2022/03/26 09:39:09;;;;;;;30.65;17.27;;;;;;;17.96;44.74;103252.25;5073874;28;20372;-62
2022/03/26 09:41:39;;;;;;;29.73;15.65;;;;;;;18.13;44.12;103237.94;5073762;28;20052;-62
2022/03/26 09:44:09;;;;;;;35.25;19.10;;;;;;;18.07;43.62;103244.50;5073709;28;20063;-63
2022/03/26 09:46:40;;;;;;;36.70;19.70;;;;;;;18.16;44.59;103243.06;5073865;28;20040;-62
2022/03/26 09:49:09;;;;;;;35.17;18.83;;;;;;;18.49;44.10;103236.69;5073629;28;20507;-63
2022/03/26 09:51:37;;;;;;;33.25;17.65;;;;;;;18.74;44.15;103234.19;5073514;28;20511;-62
2022/03/26 09:54:06;;;;;;;31.70;17.98;;;;;;;18.87;42.65;103244.06;5073118;28;20049;-62
2022/03/26 09:56:35;;;;;;;29.98;15.95;;;;;;;18.95;43.77;103230.31;5073222;28;20071;-62
2022/03/26 09:59:04;;;;;;;23.52;13.50;;;;;;;19.10;43.23;103229.31;5072988;28;20044;-62
2022/03/26 10:01:32;;;;;;;23.13;13.23;;;;;;;18.91;43.71;103237.66;5073176;28;20040;-62
2022/03/26 10:04:10;;;;;;;23.00;13.07;;;;;;;19.28;42.92;103235.28;5073054;28;20127;-62
2022/03/26 10:06:47;;;;;;;22.60;12.93;;;;;;;19.39;42.70;103235.44;5071419;28;20048;-62
2022/03/26 10:09:26;;;;;;;21.77;12.88;;;;;;;19.59;43.51;103227.94;5073383;28;20052;-63
2022/03/26 10:12:01;;;;;;;22.13;12.50;;;;;;;19.80;42.14;103231.03;5053337;28;20049;-63
2022/03/26 10:14:42;;;;;;;20.55;11.80;;;;;;;19.74;42.08;103226.06;5060112;28;20043;-62
2022/03/26 10:17:16;;;;;;;21.13;12.75;;;;;;;20.16;41.91;103228.63;5082203;28;20059;-62
2022/03/26 10:19:48;;;;;;;21.85;12.35;;;;;;;20.01;41.62;103212.69;5078978;28;20059;-62
2022/03/26 10:22:27;;;;;;;18.60;12.27;;;;;;;20.24;41.69;103220.94;5082796;28;20135;-62
2022/03/26 10:24:56;;;;;;;19.77;10.65;;;;;;;20.46;41.04;103216.78;5086445;28;20374;-61
2022/03/26 10:27:25;;;;;;;17.48;10.05;;;;;;;20.39;40.24;103211.84;5077444;28;20101;-62
2022/03/26 10:29:54;;;;;;;19.15;11.15;;;;;;;20.15;40.42;103213.56;5079023;28;20101;-62
2022/03/26 10:32:41;;;;;;;19.20;11.85;;;;;;;20.52;40.63;103219.00;5077544;28;20056;-62
2022/03/26 10:35:20;;;;;;;16.15;10.45;;;;;;;20.96;39.24;103212.34;5082331;28;20063;-62
2022/03/26 10:37:56;;;;;;;17.83;10.73;;;;;;;20.89;38.57;103216.44;5083128;28;20131;-62
2022/03/26 10:40:31;;;;;;;19.13;10.73;;;;;;;20.97;38.55;103208.72;5079848;28;20059;-58
2022/03/26 10:43:02;;;;;;;16.13;10.63;;;;;;;20.98;37.60;103204.19;5081817;28;20402;-57
2022/03/26 10:45:32;;;;;;;17.63;9.95;;;;;;;20.59;38.76;103204.25;5088646;28;20064;-57
2022/03/26 10:48:02;;;;;;;19.38;10.82;;;;;;;20.87;39.44;103205.81;5091570;28;20036;-57
2022/03/26 10:50:35;;;;;;;18.38;11.45;;;;;;;21.09;38.35;103205.13;5092136;28;20048;-57
2022/03/26 10:53:09;;;;;;;19.65;11.77;;;;;;;21.36;38.40;103197.84;5092748;28;20050;-57
2022/03/26 10:55:39;;;;;;;20.25;11.40;;;;;;;21.29;38.66;103202.81;5092601;28;20062;-57
2022/03/26 10:58:08;;;;;;;16.83;11.32;;;;;;;21.53;37.99;103204.63;5092525;28;20040;-57
2022/03/26 11:00:37;;;;;;;17.10;10.85;;;;;;;21.91;37.48;103192.84;5092473;28;20056;-57
2022/03/26 11:03:06;;;;;;;71.28;16.13;;;;;;;21.83;36.40;103195.25;5092403;28;20547;-57
2022/03/26 11:05:35;;;;;;;21.02;12.10;;;;;;;21.57;37.11;103188.25;5092289;28;20039;-58
2022/03/26 11:08:06;;;;;;;18.27;11.52;;;;;;;22.23;36.92;103186.81;5091895;28;20044;-62
2022/03/26 11:10:34;;;;;;;16.60;10.50;;;;;;;22.51;35.85;103184.66;5091933;28;20517;-62
2022/03/26 11:13:03;;;;;;;17.48;10.00;;;;;;;22.47;34.89;103181.38;5091648;28;20052;-63
2022/03/26 11:15:35;;;;;;;17.45;10.38;;;;;;;22.30;35.07;103188.03;5073044;28;20403;-63
2022/03/26 11:18:21;;;;;;;16.77;10.57;;;;;;;22.17;34.93;103177.44;5072039;28;20048;-63
2022/03/26 11:21:08;;;;;;;15.27;9.60;;;;;;;22.62;33.86;103177.47;5071435;28;20048;-63
2022/03/26 11:23:54;;;;;;;18.23;11.23;;;;;;;22.81;33.83;103177.81;5072343;28;20479;-63